createdAt,value
2018-06-18T00:02:13.563Z,97.50
2018-06-18T00:08:19.634Z,97.70
2018-06-18T00:14:25.767Z,97.80
2018-06-18T00:20:31.524Z,98.50
2018-06-18T00:26:37.192Z,99.20
2018-06-18T00:32:43.088Z,99.90
2018-06-18T00:38:48.948Z,99.90
2018-06-18T00:44:55.315Z,99.90
2018-06-18T00:51:01.082Z,99.90
2018-06-18T00:57:06.931Z,99.90
2018-06-18T01:03:12.758Z,99.90
2018-06-18T01:09:18.435Z,99.90
2018-06-18T01:15:24.733Z,99.90
2018-06-18T01:21:30.438Z,99.90
2018-06-18T01:27:36.068Z,99.90
2018-06-18T01:33:41.912Z,99.90
2018-06-18T01:39:47.855Z,99.90
2018-06-18T01:45:54.112Z,99.90
2018-06-18T01:51:59.933Z,99.90
2018-06-18T01:58:06.637Z,99.90
2018-06-18T02:04:12.381Z,99.90
2018-06-18T02:10:18.267Z,99.90
2018-06-18T02:16:24.392Z,99.90
2018-06-18T02:22:30.030Z,99.90
2018-06-18T02:28:40.882Z,99.90
2018-06-18T02:34:51.845Z,99.90
2018-06-18T02:40:57.577Z,99.90
2018-06-18T02:47:03.279Z,99.90
2018-06-18T02:53:08.983Z,99.90
2018-06-18T02:59:14.610Z,99.90
2018-06-18T03:05:20.721Z,99.90
2018-06-18T03:11:27.233Z,99.90
2018-06-18T03:17:32.996Z,99.90
2018-06-18T03:23:43.905Z,99.90
2018-06-18T03:29:49.888Z,99.90
2018-06-18T03:35:56.120Z,99.90
2018-06-18T03:42:01.901Z,99.90
2018-06-18T03:48:11.769Z,99.90
2018-06-18T03:54:17.472Z,99.90
2018-06-18T04:00:24.417Z,99.90
2018-06-18T04:06:35.264Z,99.90
2018-06-18T04:12:41.125Z,99.90
2018-06-18T04:18:51.789Z,99.90
2018-06-18T04:24:57.949Z,99.90
2018-06-18T04:31:03.702Z,99.90
2018-06-18T04:37:09.295Z,99.90
2018-06-18T04:43:20.541Z,99.90
2018-06-18T04:49:31.721Z,99.90
2018-06-18T04:55:37.351Z,99.90
2018-06-18T05:01:43.175Z,99.90
2018-06-18T05:07:54.503Z,99.90
2018-06-18T05:14:00.206Z,99.90
2018-06-18T05:20:06.131Z,99.90
2018-06-18T05:26:11.858Z,99.90
2018-06-18T05:32:17.622Z,99.90
2018-06-18T05:38:32.618Z,99.90
2018-06-18T05:44:38.320Z,99.90
2018-06-18T05:50:44.213Z,99.90
2018-06-18T05:56:50.147Z,99.90
2018-06-18T06:02:56.809Z,99.90
2018-06-18T06:09:02.609Z,99.90
2018-06-18T06:15:08.401Z,99.90
2018-06-18T06:21:15.780Z,99.80
2018-06-18T06:27:21.799Z,99.60
2018-06-18T06:33:28.307Z,99.90
2018-06-18T06:39:33.939Z,99.50
2018-06-18T06:45:39.672Z,98.80
2018-06-18T06:51:45.337Z,99.10
2018-06-18T06:57:52.906Z,99.40
2018-06-18T07:03:59.040Z,99.70
2018-06-18T07:10:05.085Z,99.30
2018-06-18T07:16:10.721Z,98.90
2018-06-18T07:22:16.892Z,98.70
2018-06-18T07:28:22.872Z,97.90
2018-06-18T07:34:28.650Z,95.80
2018-06-18T07:40:34.339Z,97.20
2018-06-18T07:46:40.106Z,97.30
2018-06-18T07:52:45.777Z,97.00
2018-06-18T07:58:53.236Z,97.30
2018-06-18T08:04:59.349Z,98.70
2018-06-18T08:11:05.000Z,98.20
2018-06-18T08:17:10.610Z,98.40
2018-06-18T08:23:16.456Z,98.20
2018-06-18T08:29:22.153Z,97.70
2018-06-18T08:35:28.293Z,99.50
2018-06-18T08:41:33.924Z,99.90
2018-06-18T08:47:39.638Z,99.90
2018-06-18T08:53:50.524Z,99.90
2018-06-18T09:00:01.505Z,99.90
2018-06-18T09:06:07.192Z,97.60
2018-06-18T09:18:18.256Z,96.40
2018-06-18T09:24:39.605Z,96.40
2018-06-18T09:30:45.228Z,97.70
2018-06-18T09:36:50.899Z,97.00
2018-06-18T09:42:56.779Z,96.00
2018-06-18T09:49:07.624Z,95.30
2018-06-18T09:55:18.445Z,95.40
2018-06-18T10:01:29.867Z,95.70
2018-06-18T10:07:35.773Z,96.00
2018-06-18T10:13:41.409Z,97.30
2018-06-18T10:19:47.497Z,97.90
2018-06-18T10:25:54.232Z,96.80
2018-06-18T10:31:59.898Z,96.80
2018-06-18T10:38:17.408Z,96.30
2018-06-18T10:44:24.081Z,96.00
2018-06-18T10:50:30.053Z,95.40
2018-06-18T10:56:35.798Z,95.50
2018-06-18T11:02:41.696Z,94.70
2018-06-18T11:08:47.359Z,93.70
2018-06-18T11:14:53.933Z,93.30
2018-06-18T11:21:04.770Z,93.50
2018-06-18T11:27:11.543Z,93.90
2018-06-18T11:33:17.301Z,92.90
2018-06-18T11:39:23.463Z,91.70
2018-06-18T11:45:29.421Z,92.10
2018-06-18T11:51:35.018Z,92.30
2018-06-18T11:57:40.860Z,93.40
2018-06-18T12:04:50.731Z,93.10
2018-06-18T12:10:56.543Z,93.90
2018-06-18T12:17:02.423Z,92.10
2018-06-18T12:23:08.283Z,93.10
2018-06-18T12:29:14.175Z,91.50
2018-06-18T12:35:20.020Z,92.80
2018-06-18T12:41:26.188Z,96.20
2018-06-18T12:47:36.940Z,96.10
2018-06-18T12:53:47.838Z,93.80
2018-06-18T12:59:53.951Z,94.40
2018-06-18T13:05:59.805Z,92.40
2018-06-18T13:12:05.769Z,91.50
2018-06-18T13:18:11.433Z,91.20
2018-06-18T13:24:17.056Z,90.90
2018-06-18T13:30:23.205Z,90.60
2018-06-18T13:36:29.159Z,91.40
2018-06-18T13:42:40.041Z,92.20
2018-06-18T13:48:50.559Z,91.90
2018-06-18T13:54:57.350Z,91.90
2018-06-18T14:01:02.975Z,92.20
2018-06-18T14:07:08.642Z,91.50
2018-06-18T14:13:14.561Z,91.40
2018-06-18T14:19:27.719Z,91.30
2018-06-18T14:25:33.353Z,91.40
2018-06-18T14:31:44.170Z,91.00
2018-06-18T14:37:54.922Z,91.10
2018-06-18T14:44:00.789Z,90.90
2018-06-18T14:50:06.545Z,88.90
2018-06-18T14:56:20.882Z,88.90
2018-06-18T15:02:26.950Z,87.00
2018-06-18T15:08:32.686Z,85.80
2018-06-18T15:14:38.363Z,83.50
2018-06-18T15:20:44.078Z,84.80
2018-06-18T15:26:50.136Z,83.30
2018-06-18T15:32:56.363Z,83.40
2018-06-18T15:39:02.199Z,84.80
2018-06-18T15:45:08.080Z,87.40
2018-06-18T15:51:13.817Z,88.90
2018-06-18T15:57:19.553Z,89.10
2018-06-18T16:03:25.608Z,88.80
2018-06-18T16:09:31.312Z,88.90
2018-06-18T16:15:37.035Z,85.00
2018-06-18T16:21:42.839Z,85.00
2018-06-18T16:27:48.600Z,86.70
2018-06-18T16:33:55.874Z,88.20
2018-06-18T16:40:01.618Z,88.50
2018-06-18T16:46:07.441Z,89.80
2018-06-18T16:52:13.144Z,89.60
2018-06-18T16:58:19.462Z,89.70
2018-06-18T17:04:25.935Z,90.50
2018-06-18T17:10:31.622Z,91.00
2018-06-18T17:16:37.606Z,91.50
2018-06-18T17:22:43.395Z,91.90
2018-06-18T17:28:49.194Z,92.40
2018-06-18T17:34:55.032Z,92.70
2018-06-18T17:41:00.783Z,93.20
2018-06-18T17:47:06.429Z,93.60
2018-06-18T17:53:12.133Z,94.00
2018-06-18T17:59:17.794Z,94.60
2018-06-18T18:05:23.567Z,95.40
2018-06-18T18:11:29.533Z,96.00
2018-06-18T18:17:35.291Z,96.20
2018-06-18T18:23:40.985Z,96.60
2018-06-18T18:29:46.793Z,96.60
2018-06-18T18:35:52.452Z,96.70
2018-06-18T18:41:58.300Z,97.60
2018-06-18T18:48:03.964Z,98.50
2018-06-18T18:54:41.315Z,99.30
2018-06-18T19:00:47.783Z,99.90
2018-06-18T19:06:54.406Z,99.90
2018-06-18T19:13:03.581Z,99.90
2018-06-18T19:19:09.401Z,99.90
2018-06-18T19:25:15.108Z,99.90
2018-06-18T19:31:25.212Z,99.90
2018-06-18T19:37:31.495Z,99.90
2018-06-18T19:49:42.590Z,99.90
2018-06-18T19:55:48.316Z,99.90
2018-06-18T20:01:53.936Z,99.90
2018-06-18T20:08:06.257Z,99.90
2018-06-18T20:14:12.131Z,99.90
2018-06-18T20:20:17.875Z,99.90
2018-06-18T20:26:24.047Z,99.90
2018-06-18T20:32:30.013Z,99.90
2018-06-18T20:38:35.621Z,99.90
2018-06-18T20:44:41.442Z,99.90
2018-06-18T20:50:47.178Z,99.90
2018-06-18T20:56:52.920Z,99.90
2018-06-18T21:02:58.605Z,99.90
2018-06-18T21:09:06.752Z,99.90
2018-06-18T21:15:12.389Z,99.90
2018-06-18T21:21:18.150Z,99.90
2018-06-18T21:27:24.238Z,99.90
2018-06-18T21:33:29.937Z,99.90
2018-06-18T21:39:35.544Z,99.90
2018-06-18T21:45:41.358Z,99.90
2018-06-18T21:51:47.374Z,99.90
2018-06-18T21:57:54.000Z,99.90
2018-06-18T22:03:59.828Z,99.90
2018-06-18T22:10:05.968Z,99.90
2018-06-18T22:16:11.686Z,99.90
2018-06-18T22:22:17.381Z,99.90
2018-06-18T22:28:34.388Z,99.90
2018-06-18T22:34:40.026Z,99.90
2018-06-18T22:40:45.774Z,99.90
2018-06-18T22:46:52.765Z,99.90
2018-06-18T22:52:58.749Z,99.90
2018-06-18T22:59:04.545Z,99.90
2018-06-18T23:05:10.267Z,99.90
2018-06-18T23:11:15.952Z,99.90
2018-06-18T23:17:21.998Z,99.90
2018-06-18T23:23:28.259Z,99.90
2018-06-18T23:29:33.997Z,99.90
2018-06-18T23:35:40.021Z,99.90
2018-06-18T23:41:50.130Z,99.90
2018-06-18T23:47:56.137Z,99.90
2018-06-18T23:54:01.834Z,99.90
